createdAt,value
2023-05-13T00:12:05.608Z,11.30
2023-05-13T00:32:08.617Z,11.44
2023-05-13T00:52:15.126Z,11.39
2023-05-13T01:12:18.886Z,11.08
2023-05-13T01:32:21.536Z,10.56
2023-05-13T01:52:24.883Z,10.07
2023-05-13T05:38:04.498Z,15.49
2023-05-13T05:58:09.259Z,16.11
2023-05-13T06:18:15.020Z,17.43
2023-05-13T06:38:19.759Z,17.33
2023-05-13T06:58:22.955Z,17.32
2023-05-13T07:18:25.737Z,17.03
2023-05-13T07:38:28.463Z,16.08
2023-05-13T07:58:31.204Z,15.92
2023-05-13T08:18:34.248Z,16.84
2023-05-13T08:38:36.948Z,17.13
2023-05-13T08:58:39.587Z,17.30
2023-05-13T09:18:42.528Z,18.29
2023-05-13T09:38:45.393Z,17.66
2023-05-13T09:58:48.663Z,18.26
2023-05-13T10:18:52.906Z,19.05
2023-05-13T10:38:55.582Z,18.81
2023-05-13T10:58:58.219Z,18.51
2023-05-13T11:19:01.341Z,18.67
2023-05-13T11:39:04.060Z,20.10
2023-05-13T11:59:06.902Z,22.23
2023-05-13T12:19:09.798Z,21.92
2023-05-13T12:39:12.623Z,21.47
2023-05-13T12:59:15.775Z,21.59
2023-05-13T13:19:19.289Z,20.86
2023-05-13T13:39:22.045Z,21.75
2023-05-13T13:59:24.918Z,21.51
2023-05-13T14:19:27.859Z,20.83
2023-05-13T14:39:31.573Z,20.49
2023-05-13T14:59:34.234Z,19.91
2023-05-13T15:19:37.107Z,20.22
2023-05-13T15:39:39.779Z,19.13
2023-05-13T15:59:42.472Z,18.59
2023-05-13T16:19:45.757Z,18.45
2023-05-13T16:39:49.043Z,17.24
2023-05-13T16:59:51.785Z,17.24
2023-05-13T17:19:54.508Z,17.13
2023-05-13T17:39:58.993Z,16.95
2023-05-13T18:00:01.686Z,16.51
2023-05-13T18:20:06.634Z,15.87
2023-05-13T18:40:09.339Z,15.06
2023-05-13T19:00:12.618Z,14.16
2023-05-13T19:20:15.299Z,13.85
2023-05-13T19:40:17.937Z,13.25
2023-05-13T20:00:21.575Z,13.05
2023-05-13T20:20:24.575Z,12.73
2023-05-13T20:40:27.417Z,12.62
2023-05-13T21:00:31.140Z,12.18
2023-05-13T21:20:34.111Z,11.81
2023-05-13T21:40:36.848Z,11.59
2023-05-13T22:00:39.695Z,11.43
2023-05-13T22:20:42.645Z,11.33
2023-05-13T22:40:45.670Z,10.93
2023-05-13T23:00:48.316Z,10.90
2023-05-13T23:20:51.322Z,10.69
2023-05-13T23:40:53.972Z,10.33
